LRQ039J SBSG-GCTS
Flight info
| Callsign | LRQ039J |
|---|---|
| Flight time | N/A |
| Altitude | 37000 |
| Route | SINUD UZ86 ORUTA UN866 DEKON/N0464F380 UN866 AMDOL/N0460F390 UN866 TENPA/N0455F410 N866 APASO N871 URQUI |
| Aircraft | CL60/M-SBDE1E2E3FGHIJ1J4J5J7M3RWXYZ/LB1V1D1 |
Departure
| Time | 2026-05-07 08:43 |
|---|---|
| Airport | Rio Grande do Norte/São Gonçalo do Amarante–Governador Aluízio Alves International Airport (SBSG) |
Arrival
| Time | N/A |
|---|---|
| Airport | Tenerife Sur Airport (GCTS) |
| Time | Latitude | Longitude | Altitude | Speed | Heading |
|---|---|---|---|---|---|
| 2026-05-07 08:22 | -5.76409 | -35.37520 | 291 ft | 0 kts | 9° |
| 2026-05-07 08:37 | -5.76408 | -35.37520 | 291 ft | 0 kts | 9° |
| 2026-05-07 08:38 | -5.76376 | -35.37528 | 291 ft | 8 kts | 291° |
| 2026-05-07 08:38 | -5.76366 | -35.37594 | 291 ft | 10 kts | 278° |
| 2026-05-07 08:38 | -5.76357 | -35.37670 | 291 ft | 9 kts | 245° |
| 2026-05-07 08:38 | -5.76427 | -35.37688 | 291 ft | 11 kts | 190° |
| 2026-05-07 08:39 | -5.76469 | -35.37638 | 291 ft | 12 kts | 99° |
| 2026-05-07 08:39 | -5.76485 | -35.37545 | 291 ft | 14 kts | 99° |
| 2026-05-07 08:39 | -5.76502 | -35.37439 | 291 ft | 16 kts | 99° |
| 2026-05-07 08:39 | -5.76521 | -35.37320 | 291 ft | 18 kts | 97° |
| 2026-05-07 08:40 | -5.76573 | -35.37245 | 291 ft | 14 kts | 186° |
| 2026-05-07 08:40 | -5.76678 | -35.37261 | 291 ft | 14 kts | 195° |
| 2026-05-07 08:40 | -5.76697 | -35.37347 | 291 ft | 15 kts | 277° |
| 2026-05-07 08:40 | -5.76681 | -35.37456 | 291 ft | 16 kts | 279° |
| 2026-05-07 08:41 | -5.76660 | -35.37581 | 291 ft | 18 kts | 278° |
| 2026-05-07 08:41 | -5.76640 | -35.37717 | 291 ft | 20 kts | 279° |
| 2026-05-07 08:41 | -5.76617 | -35.37861 | 291 ft | 18 kts | 278° |
| 2026-05-07 08:41 | -5.76626 | -35.37953 | 291 ft | 14 kts | 219° |
| 2026-05-07 08:42 | -5.76727 | -35.37976 | 291 ft | 15 kts | 186° |
| 2026-05-07 08:42 | -5.76776 | -35.37942 | 291 ft | 0 kts | 98° |
| 2026-05-07 08:43 | -5.76819 | -35.37682 | 291 ft | 85 kts | 98° |
| 2026-05-07 08:43 | -5.76955 | -35.36809 | 296 ft | 160 kts | 99° |
| 2026-05-07 08:43 | -5.77119 | -35.35643 | 865 ft | 177 kts | 101° |
| 2026-05-07 08:43 | -5.77327 | -35.34357 | 1515 ft | 201 kts | 102° |
| 2026-05-07 08:44 | -5.77546 | -35.32982 | 2433 ft | 206 kts | 101° |
| 2026-05-07 08:44 | -5.77336 | -35.31522 | 3112 ft | 227 kts | 62° |
| 2026-05-07 08:44 | -5.76063 | -35.30487 | 3876 ft | 253 kts | 23° |
| 2026-05-07 08:44 | -5.74231 | -35.30328 | 4531 ft | 282 kts | 351° |
| 2026-05-07 08:45 | -5.72449 | -35.31233 | 5169 ft | 294 kts | 317° |
| 2026-05-07 08:45 | -5.71391 | -35.32978 | 5833 ft | 295 kts | 285° |
| 2026-05-07 08:45 | -5.70972 | -35.34989 | 6501 ft | 295 kts | 281° |
| 2026-05-07 08:45 | -5.70590 | -35.37009 | 7168 ft | 297 kts | 281° |
| 2026-05-07 08:46 | -5.70193 | -35.39045 | 7842 ft | 299 kts | 282° |
| 2026-05-07 08:46 | -5.69786 | -35.41074 | 8514 ft | 301 kts | 282° |
| 2026-05-07 08:46 | -5.69358 | -35.43145 | 9199 ft | 304 kts | 282° |
| 2026-05-07 08:46 | -5.68922 | -35.45203 | 9884 ft | 307 kts | 283° |
| 2026-05-07 08:47 | -5.68459 | -35.47326 | 10594 ft | 314 kts | 283° |
| 2026-05-07 08:47 | -5.67786 | -35.49426 | 11327 ft | 322 kts | 301° |
| 2026-05-07 08:47 | -5.66467 | -35.51216 | 12018 ft | 331 kts | 310° |
| 2026-05-07 08:47 | -5.64932 | -35.53097 | 12262 ft | 356 kts | 310° |
| 2026-05-07 08:48 | -5.63344 | -35.55058 | 12627 ft | 374 kts | 310° |
| 2026-05-07 08:48 | -5.61690 | -35.57103 | 13301 ft | 381 kts | 310° |
| 2026-05-07 08:48 | -5.59996 | -35.59199 | 14062 ft | 384 kts | 310° |
| 2026-05-07 08:48 | -5.58333 | -35.61258 | 14823 ft | 385 kts | 309° |
| 2026-05-07 08:49 | -5.56638 | -35.63355 | 15597 ft | 386 kts | 310° |
| 2026-05-07 08:49 | -5.54965 | -35.65427 | 16301 ft | 387 kts | 310° |
| 2026-05-07 08:49 | -5.53253 | -35.67546 | 16992 ft | 389 kts | 310° |
| 2026-05-07 08:49 | -5.51560 | -35.69642 | 17658 ft | 390 kts | 309° |
| 2026-05-07 08:50 | -5.49849 | -35.71762 | 18266 ft | 393 kts | 309° |
| 2026-05-07 08:50 | -5.48109 | -35.73915 | 18891 ft | 395 kts | 310° |
| 2026-05-07 08:50 | -5.46377 | -35.76060 | 19512 ft | 397 kts | 309° |
| 2026-05-07 08:50 | -5.44660 | -35.78187 | 20085 ft | 399 kts | 310° |
| 2026-05-07 08:51 | -5.42893 | -35.80374 | 20711 ft | 399 kts | 309° |
| 2026-05-07 08:51 | -5.41161 | -35.82519 | 21240 ft | 402 kts | 309° |
| 2026-05-07 08:51 | -5.39402 | -35.84697 | 21792 ft | 403 kts | 309° |
| 2026-05-07 08:51 | -5.37639 | -35.86880 | 22294 ft | 405 kts | 309° |
| 2026-05-07 08:52 | -5.35858 | -35.89085 | 22834 ft | 406 kts | 309° |
| 2026-05-07 08:52 | -5.34064 | -35.91306 | 23215 ft | 411 kts | 309° |
| 2026-05-07 08:52 | -5.32255 | -35.93545 | 23636 ft | 414 kts | 309° |
| 2026-05-07 08:52 | -5.30433 | -35.95800 | 24006 ft | 419 kts | 309° |
| 2026-05-07 08:53 | -5.28601 | -35.98091 | 24408 ft | 422 kts | 306° |
| 2026-05-07 08:53 | -5.27041 | -36.00583 | 24770 ft | 426 kts | 299° |
| 2026-05-07 08:53 | -5.25586 | -36.03154 | 25193 ft | 427 kts | 299° |
| 2026-05-07 08:53 | -5.24107 | -36.05751 | 25563 ft | 430 kts | 299° |
| 2026-05-07 08:54 | -5.22625 | -36.08351 | 25934 ft | 432 kts | 299° |
| 2026-05-07 08:54 | -5.21124 | -36.10986 | 26298 ft | 435 kts | 298° |
| 2026-05-07 08:54 | -5.19600 | -36.13605 | 26620 ft | 438 kts | 301° |
| 2026-05-07 08:54 | -5.17837 | -36.16128 | 26963 ft | 441 kts | 305° |
| 2026-05-07 08:55 | -5.16000 | -36.18599 | 27258 ft | 444 kts | 304° |
| 2026-05-07 08:55 | -5.14161 | -36.21077 | 27507 ft | 449 kts | 305° |
| 2026-05-07 08:55 | -5.12281 | -36.23612 | 27798 ft | 451 kts | 304° |
| 2026-05-07 08:55 | -5.10401 | -36.26148 | 28084 ft | 454 kts | 304° |
| 2026-05-07 08:56 | -5.08514 | -36.28692 | 28367 ft | 456 kts | 304° |
| 2026-05-07 08:56 | -5.06620 | -36.31246 | 28649 ft | 458 kts | 304° |
| 2026-05-07 08:56 | -5.04706 | -36.33826 | 28963 ft | 460 kts | 304° |
| 2026-05-07 08:56 | -5.02783 | -36.36419 | 29255 ft | 461 kts | 304° |
| 2026-05-07 08:57 | -5.00847 | -36.39028 | 29586 ft | 461 kts | 305° |
| 2026-05-07 08:57 | -4.98920 | -36.41626 | 29984 ft | 459 kts | 305° |
| 2026-05-07 08:57 | -4.97014 | -36.44194 | 30424 ft | 456 kts | 306° |
| 2026-05-07 08:57 | -4.95118 | -36.46751 | 30860 ft | 453 kts | 306° |
| 2026-05-07 08:58 | -4.93232 | -36.49293 | 31275 ft | 451 kts | 306° |
| 2026-05-07 08:58 | -4.91340 | -36.51843 | 31701 ft | 448 kts | 306° |
| 2026-05-07 08:58 | -4.89471 | -36.54362 | 32094 ft | 445 kts | 306° |
| 2026-05-07 08:58 | -4.87631 | -36.56841 | 32457 ft | 443 kts | 307° |
| 2026-05-07 08:59 | -4.85788 | -36.59325 | 32857 ft | 441 kts | 307° |
| 2026-05-07 08:59 | -4.83952 | -36.61799 | 33212 ft | 440 kts | 307° |
| 2026-05-07 08:59 | -4.82109 | -36.64282 | 33472 ft | 440 kts | 307° |
| 2026-05-07 08:59 | -4.80212 | -36.66713 | 33754 ft | 441 kts | 311° |
| 2026-05-07 09:00 | -4.78054 | -36.68895 | 34047 ft | 440 kts | 319° |
| 2026-05-07 09:00 | -4.75646 | -36.70764 | 34334 ft | 440 kts | 326° |
| 2026-05-07 09:00 | -4.72984 | -36.72321 | 34637 ft | 439 kts | 333° |
| 2026-05-07 09:00 | -4.70153 | -36.73507 | 34963 ft | 439 kts | 340° |
| 2026-05-07 09:01 | -4.67183 | -36.74317 | 35235 ft | 439 kts | 347° |
| 2026-05-07 09:01 | -4.64153 | -36.74726 | 35486 ft | 440 kts | 355° |
| 2026-05-07 09:01 | -4.61068 | -36.74732 | 35709 ft | 441 kts | 2° |
| 2026-05-07 09:01 | -4.58008 | -36.74323 | 35898 ft | 443 kts | 10° |
| 2026-05-07 09:02 | -4.55024 | -36.73496 | 36116 ft | 444 kts | 18° |
| 2026-05-07 09:02 | -4.52162 | -36.72300 | 36367 ft | 444 kts | 23° |
| 2026-05-07 09:02 | -4.49306 | -36.70994 | 36540 ft | 445 kts | 22° |
| 2026-05-07 09:02 | -4.46492 | -36.69711 | 36723 ft | 445 kts | 23° |
| 2026-05-07 09:03 | -4.43630 | -36.68407 | 36915 ft | 445 kts | 22° |
| 2026-05-07 09:03 | -4.40805 | -36.67120 | 36947 ft | 448 kts | 23° |
| 2026-05-07 09:03 | -4.35071 | -36.64508 | 36949 ft | 454 kts | 23° |
| 2026-05-07 09:04 | -4.29271 | -36.61867 | 36950 ft | 457 kts | 23° |
| 2026-05-07 09:04 | -4.23460 | -36.59220 | 36947 ft | 458 kts | 23° |
| 2026-05-07 09:05 | -4.17637 | -36.56569 | 36948 ft | 456 kts | 23° |
| 2026-05-07 09:05 | -4.11785 | -36.53905 | 36947 ft | 456 kts | 23° |
| 2026-05-07 09:06 | -4.05980 | -36.51263 | 36949 ft | 456 kts | 23° |
| 2026-05-07 09:06 | -4.00210 | -36.48638 | 36949 ft | 455 kts | 23° |
| 2026-05-07 09:07 | -3.94405 | -36.45996 | 36936 ft | 455 kts | 24° |
| 2026-05-07 09:07 | -3.88659 | -36.43383 | 36925 ft | 454 kts | 24° |
| 2026-05-07 09:08 | -3.82876 | -36.40752 | 36928 ft | 454 kts | 24° |
| 2026-05-07 09:08 | -3.77071 | -36.38112 | 36927 ft | 454 kts | 24° |
| 2026-05-07 09:09 | -3.71309 | -36.35492 | 36929 ft | 454 kts | 23° |
| 2026-05-07 09:09 | -3.65529 | -36.32864 | 36932 ft | 453 kts | 24° |
| 2026-05-07 09:10 | -3.59782 | -36.30252 | 36930 ft | 452 kts | 24° |
| 2026-05-07 09:10 | -3.54002 | -36.27625 | 36932 ft | 453 kts | 24° |
| 2026-05-07 09:11 | -3.48237 | -36.25004 | 36928 ft | 454 kts | 24° |
| 2026-05-07 09:11 | -3.42437 | -36.22369 | 36932 ft | 455 kts | 24° |
| 2026-05-07 09:12 | -3.36680 | -36.19753 | 36928 ft | 454 kts | 24° |
| 2026-05-07 09:12 | -3.30871 | -36.17114 | 36928 ft | 454 kts | 24° |
| 2026-05-07 09:13 | -3.25088 | -36.14487 | 36931 ft | 453 kts | 24° |
| 2026-05-07 09:13 | -3.19364 | -36.11888 | 36934 ft | 453 kts | 24° |
| 2026-05-07 09:14 | -3.13584 | -36.09263 | 36930 ft | 453 kts | 24° |
| 2026-05-07 09:14 | -3.07803 | -36.06638 | 36930 ft | 454 kts | 24° |
| 2026-05-07 09:15 | -3.02057 | -36.04030 | 36927 ft | 455 kts | 24° |
| 2026-05-07 09:15 | -2.96275 | -36.01405 | 36930 ft | 455 kts | 24° |
| 2026-05-07 09:16 | -2.90468 | -35.98769 | 36939 ft | 455 kts | 24° |
| 2026-05-07 09:16 | -2.84700 | -35.96152 | 36951 ft | 455 kts | 24° |
| 2026-05-07 09:17 | -2.78893 | -35.93517 | 36953 ft | 456 kts | 24° |
| 2026-05-07 09:17 | -2.73072 | -35.90876 | 36948 ft | 456 kts | 24° |
| 2026-05-07 09:18 | -2.67266 | -35.88242 | 36945 ft | 456 kts | 24° |
| 2026-05-07 09:18 | -2.61456 | -35.85607 | 36947 ft | 457 kts | 24° |
| 2026-05-07 09:19 | -2.55648 | -35.82972 | 36947 ft | 457 kts | 24° |
| 2026-05-07 09:19 | -2.49840 | -35.80338 | 36946 ft | 457 kts | 24° |
| 2026-05-07 09:20 | -2.44016 | -35.77697 | 36949 ft | 457 kts | 24° |
| 2026-05-07 09:20 | -2.38192 | -35.75057 | 36950 ft | 457 kts | 24° |
| 2026-05-07 09:21 | -2.32371 | -35.72417 | 36948 ft | 457 kts | 24° |
| 2026-05-07 09:21 | -2.26522 | -35.69766 | 36948 ft | 459 kts | 24° |
| 2026-05-07 09:22 | -2.20688 | -35.67121 | 36949 ft | 459 kts | 24° |
| 2026-05-07 09:22 | -2.14865 | -35.64482 | 36945 ft | 460 kts | 24° |
| 2026-05-07 09:23 | -2.09033 | -35.61839 | 36936 ft | 459 kts | 24° |
| 2026-05-07 09:23 | -2.03175 | -35.59184 | 36925 ft | 459 kts | 24° |
| 2026-05-07 09:24 | -1.97330 | -35.56535 | 36926 ft | 459 kts | 24° |
| 2026-05-07 09:24 | -1.91467 | -35.53880 | 36924 ft | 460 kts | 24° |
| 2026-05-07 09:25 | -1.85618 | -35.51230 | 36924 ft | 460 kts | 24° |
| 2026-05-07 09:25 | -1.79756 | -35.48574 | 36925 ft | 461 kts | 24° |
| 2026-05-07 09:26 | -1.73906 | -35.45887 | 36926 ft | 461 kts | 27° |
| 2026-05-07 09:26 | -1.68260 | -35.42806 | 36927 ft | 461 kts | 29° |
| 2026-05-07 09:27 | -1.62643 | -35.39711 | 36928 ft | 460 kts | 29° |
| 2026-05-07 09:28 | -1.54206 | -35.35067 | 36927 ft | 460 kts | 29° |
| 2026-05-07 09:28 | -1.48523 | -35.31941 | 36928 ft | 461 kts | 29° |
| 2026-05-07 09:29 | -1.42874 | -35.28834 | 36928 ft | 462 kts | 29° |
| 2026-05-07 09:29 | -1.37251 | -35.25743 | 36927 ft | 462 kts | 29° |
| 2026-05-07 09:30 | -1.31601 | -35.22638 | 36924 ft | 462 kts | 28° |
| 2026-05-07 09:30 | -1.25971 | -35.19544 | 36924 ft | 461 kts | 28° |
| 2026-05-07 09:31 | -1.20343 | -35.16452 | 36925 ft | 462 kts | 28° |
| 2026-05-07 09:31 | -1.14715 | -35.13360 | 36925 ft | 462 kts | 28° |
| 2026-05-07 09:32 | -1.09055 | -35.10251 | 36927 ft | 462 kts | 28° |
| 2026-05-07 09:32 | -1.03424 | -35.07158 | 36927 ft | 463 kts | 28° |
| 2026-05-07 09:33 | -0.97743 | -35.04038 | 36927 ft | 464 kts | 28° |
| 2026-05-07 09:33 | -0.92057 | -35.00915 | 36927 ft | 464 kts | 28° |
| 2026-05-07 09:34 | -0.86348 | -34.97780 | 36926 ft | 464 kts | 28° |
| 2026-05-07 09:34 | -0.80680 | -34.94668 | 36928 ft | 463 kts | 28° |
| 2026-05-07 09:35 | -0.75030 | -34.91565 | 36925 ft | 463 kts | 28° |
| 2026-05-07 09:35 | -0.69386 | -34.88466 | 36926 ft | 464 kts | 28° |
| 2026-05-07 09:36 | -0.63688 | -34.85337 | 36930 ft | 465 kts | 28° |
| 2026-05-07 09:36 | -0.58017 | -34.82223 | 36927 ft | 466 kts | 29° |
| 2026-05-07 09:37 | -0.52338 | -34.79104 | 36927 ft | 465 kts | 29° |
| 2026-05-07 09:37 | -0.46645 | -34.75979 | 36927 ft | 465 kts | 29° |
| 2026-05-07 09:38 | -0.40983 | -34.72870 | 36932 ft | 465 kts | 29° |
| 2026-05-07 09:38 | -0.35291 | -34.69745 | 36932 ft | 466 kts | 29° |
| 2026-05-07 09:39 | -0.29586 | -34.66612 | 36937 ft | 467 kts | 29° |
| 2026-05-07 09:39 | -0.23871 | -34.63475 | 36945 ft | 467 kts | 29° |
| 2026-05-07 09:40 | -0.18147 | -34.60332 | 36950 ft | 468 kts | 29° |
| 2026-05-07 09:40 | -0.12430 | -34.57193 | 36948 ft | 468 kts | 29° |
| 2026-05-07 09:41 | -0.06691 | -34.54042 | 36946 ft | 468 kts | 29° |
| 2026-05-07 09:41 | -0.00976 | -34.50905 | 36948 ft | 467 kts | 28° |
| 2026-05-07 09:42 | 0.04731 | -34.47771 | 36949 ft | 466 kts | 29° |
| 2026-05-07 09:42 | 0.10430 | -34.44643 | 36948 ft | 466 kts | 29° |
| 2026-05-07 09:43 | 0.16121 | -34.41518 | 36947 ft | 467 kts | 29° |
| 2026-05-07 09:43 | 0.21879 | -34.38356 | 36948 ft | 467 kts | 29° |
| 2026-05-07 09:44 | 0.27615 | -34.35207 | 36948 ft | 467 kts | 29° |
| 2026-05-07 09:44 | 0.33276 | -34.32098 | 36947 ft | 467 kts | 29° |
| 2026-05-07 09:45 | 0.38992 | -34.28960 | 36948 ft | 466 kts | 29° |
| 2026-05-07 09:45 | 0.44701 | -34.25825 | 36948 ft | 465 kts | 29° |
| 2026-05-07 09:46 | 0.50349 | -34.22724 | 36945 ft | 465 kts | 29° |
| 2026-05-07 09:46 | 0.56086 | -34.19573 | 36939 ft | 466 kts | 29° |
| 2026-05-07 09:47 | 0.61781 | -34.16446 | 36934 ft | 465 kts | 29° |
| 2026-05-07 09:47 | 0.67478 | -34.13318 | 36933 ft | 465 kts | 29° |
| 2026-05-07 09:48 | 0.73148 | -34.10204 | 36931 ft | 465 kts | 29° |
| 2026-05-07 09:48 | 0.78859 | -34.07068 | 36928 ft | 465 kts | 29° |
| 2026-05-07 09:49 | 0.84558 | -34.03938 | 36926 ft | 464 kts | 29° |
| 2026-05-07 09:49 | 0.90206 | -34.00837 | 36927 ft | 464 kts | 29° |
| 2026-05-07 09:50 | 0.95880 | -33.97722 | 36927 ft | 463 kts | 29° |
| 2026-05-07 09:50 | 1.01552 | -33.94607 | 36927 ft | 463 kts | 29° |
| 2026-05-07 09:51 | 1.07178 | -33.91518 | 36927 ft | 464 kts | 29° |
| 2026-05-07 09:51 | 1.12869 | -33.88393 | 36927 ft | 465 kts | 29° |
| 2026-05-07 09:52 | 1.18568 | -33.85263 | 36926 ft | 465 kts | 29° |
| 2026-05-07 09:52 | 1.24215 | -33.82162 | 36927 ft | 465 kts | 29° |
| 2026-05-07 09:53 | 1.29900 | -33.79040 | 36926 ft | 465 kts | 29° |
| 2026-05-07 09:53 | 1.35609 | -33.75905 | 36928 ft | 465 kts | 29° |
| 2026-05-07 09:54 | 1.41291 | -33.72784 | 36929 ft | 466 kts | 29° |
| 2026-05-07 09:54 | 1.47014 | -33.69640 | 36927 ft | 468 kts | 29° |
| 2026-05-07 09:55 | 1.52732 | -33.66499 | 36927 ft | 468 kts | 29° |
| 2026-05-07 09:55 | 1.58502 | -33.63329 | 36929 ft | 469 kts | 29° |
| 2026-05-07 09:56 | 1.64212 | -33.60192 | 36932 ft | 469 kts | 29° |
| 2026-05-07 09:56 | 1.69962 | -33.57033 | 36939 ft | 469 kts | 29° |
| 2026-05-07 09:57 | 1.75686 | -33.53888 | 36942 ft | 469 kts | 28° |
| 2026-05-07 09:57 | 1.81416 | -33.50740 | 36947 ft | 469 kts | 28° |
| 2026-05-07 09:58 | 1.87165 | -33.47581 | 36945 ft | 468 kts | 28° |
| 2026-05-07 09:58 | 1.92867 | -33.44448 | 36947 ft | 468 kts | 29° |
| 2026-05-07 09:59 | 1.98607 | -33.41294 | 36945 ft | 469 kts | 29° |
| 2026-05-07 09:59 | 2.04344 | -33.38141 | 36948 ft | 469 kts | 29° |
| 2026-05-07 10:00 | 2.10082 | -33.34988 | 36948 ft | 469 kts | 29° |
| 2026-05-07 10:00 | 2.15836 | -33.31825 | 36948 ft | 469 kts | 28° |
| 2026-05-07 10:01 | 2.21568 | -33.28674 | 36948 ft | 468 kts | 28° |
| 2026-05-07 10:01 | 2.27269 | -33.25539 | 36948 ft | 467 kts | 28° |
| 2026-05-07 10:02 | 2.32971 | -33.22405 | 36949 ft | 467 kts | 29° |
| 2026-05-07 10:02 | 2.38696 | -33.19257 | 36947 ft | 467 kts | 29° |
| 2026-05-07 10:03 | 2.44419 | -33.16110 | 36948 ft | 468 kts | 29° |
| 2026-05-07 10:03 | 2.50161 | -33.12953 | 36947 ft | 468 kts | 28° |
| 2026-05-07 10:04 | 2.55934 | -33.09778 | 36947 ft | 468 kts | 28° |
| 2026-05-07 10:04 | 2.61649 | -33.06635 | 36948 ft | 469 kts | 28° |
| 2026-05-07 10:05 | 2.67397 | -33.03473 | 36947 ft | 469 kts | 28° |
| 2026-05-07 10:05 | 2.73122 | -33.00323 | 36948 ft | 469 kts | 29° |
| 2026-05-07 10:06 | 2.78874 | -32.97158 | 36948 ft | 470 kts | 28° |
| 2026-05-07 10:06 | 2.84587 | -32.94015 | 36947 ft | 470 kts | 29° |
| 2026-05-07 10:07 | 2.90341 | -32.90848 | 36948 ft | 470 kts | 28° |
| 2026-05-07 10:07 | 2.96100 | -32.87679 | 36948 ft | 471 kts | 28° |
| 2026-05-07 10:08 | 3.01837 | -32.84521 | 36948 ft | 471 kts | 28° |
| 2026-05-07 10:08 | 3.07632 | -32.81331 | 36948 ft | 472 kts | 28° |
| 2026-05-07 10:09 | 3.13364 | -32.78175 | 36949 ft | 472 kts | 28° |
| 2026-05-07 10:09 | 3.19140 | -32.74995 | 36948 ft | 471 kts | 29° |
| 2026-05-07 10:10 | 3.24915 | -32.71815 | 36948 ft | 471 kts | 29° |
| 2026-05-07 10:10 | 3.30644 | -32.68660 | 36947 ft | 471 kts | 29° |
| 2026-05-07 10:11 | 3.36422 | -32.65477 | 36948 ft | 472 kts | 29° |
| 2026-05-07 10:11 | 3.42206 | -32.62290 | 36948 ft | 472 kts | 29° |
| 2026-05-07 10:12 | 3.47958 | -32.59121 | 36948 ft | 472 kts | 29° |
| 2026-05-07 10:12 | 3.53734 | -32.55938 | 36945 ft | 472 kts | 29° |
| 2026-05-07 10:13 | 3.59490 | -32.52766 | 36942 ft | 471 kts | 29° |
| 2026-05-07 10:13 | 3.65276 | -32.49577 | 36938 ft | 471 kts | 29° |
| 2026-05-07 10:14 | 3.71056 | -32.46390 | 36935 ft | 472 kts | 29° |
| 2026-05-07 10:14 | 3.76793 | -32.43227 | 36931 ft | 472 kts | 29° |
| 2026-05-07 10:15 | 3.82566 | -32.40044 | 36926 ft | 472 kts | 28° |
| 2026-05-07 10:15 | 3.88308 | -32.36877 | 36926 ft | 472 kts | 28° |
| 2026-05-07 10:16 | 3.94082 | -32.33692 | 36925 ft | 471 kts | 28° |
| 2026-05-07 10:16 | 3.99836 | -32.30518 | 36925 ft | 471 kts | 28° |
| 2026-05-07 10:17 | 4.05601 | -32.27336 | 36928 ft | 472 kts | 28° |
| 2026-05-07 10:17 | 4.11376 | -32.24149 | 36927 ft | 472 kts | 29° |
| 2026-05-07 10:18 | 4.17187 | -32.20941 | 36932 ft | 472 kts | 29° |
| 2026-05-07 10:18 | 4.22959 | -32.17755 | 36929 ft | 473 kts | 28° |
| 2026-05-07 10:19 | 4.28717 | -32.14575 | 36936 ft | 473 kts | 28° |
| 2026-05-07 10:19 | 4.34518 | -32.11372 | 36943 ft | 473 kts | 28° |
| 2026-05-07 10:20 | 4.40294 | -32.08181 | 36941 ft | 473 kts | 28° |
| 2026-05-07 10:20 | 4.46085 | -32.04982 | 36939 ft | 474 kts | 28° |
| 2026-05-07 10:21 | 4.51883 | -32.01778 | 36942 ft | 474 kts | 28° |
| 2026-05-07 10:21 | 4.57645 | -31.98593 | 36949 ft | 474 kts | 28° |
| 2026-05-07 10:22 | 4.63449 | -31.95384 | 36946 ft | 475 kts | 28° |
| 2026-05-07 10:22 | 4.69253 | -31.92176 | 36944 ft | 475 kts | 29° |
| 2026-05-07 10:23 | 4.75076 | -31.88956 | 36946 ft | 476 kts | 29° |
| 2026-05-07 10:23 | 4.80869 | -31.85751 | 36949 ft | 477 kts | 29° |
| 2026-05-07 10:24 | 4.86709 | -31.82521 | 36949 ft | 477 kts | 29° |
| 2026-05-07 10:24 | 4.92548 | -31.79290 | 36948 ft | 477 kts | 29° |
| 2026-05-07 10:25 | 4.98355 | -31.76076 | 36948 ft | 477 kts | 29° |
| 2026-05-07 10:25 | 5.04202 | -31.72839 | 36948 ft | 477 kts | 29° |
| 2026-05-07 10:26 | 5.10027 | -31.69614 | 36949 ft | 477 kts | 29° |
| 2026-05-07 10:26 | 5.12955 | -31.67993 | 37084 ft | 477 kts | 29° |
| 2026-05-07 10:26 | 5.15837 | -31.66397 | 37450 ft | 473 kts | 28° |
| 2026-05-07 10:26 | 5.18711 | -31.64805 | 37841 ft | 468 kts | 29° |
| 2026-05-07 10:27 | 5.21593 | -31.63208 | 37943 ft | 470 kts | 29° |
| 2026-05-07 10:27 | 5.27313 | -31.59999 | 37947 ft | 475 kts | 29° |
| 2026-05-07 10:28 | 5.33128 | -31.56731 | 37948 ft | 477 kts | 29° |
| 2026-05-07 10:28 | 5.38936 | -31.53467 | 37948 ft | 477 kts | 29° |
| 2026-05-07 10:29 | 5.44736 | -31.50207 | 37948 ft | 476 kts | 29° |
| 2026-05-07 10:29 | 5.50504 | -31.46964 | 37948 ft | 476 kts | 29° |
| 2026-05-07 10:30 | 5.59171 | -31.42090 | 37948 ft | 476 kts | 29° |
| 2026-05-07 10:30 | 5.65015 | -31.38803 | 37948 ft | 477 kts | 29° |
| 2026-05-07 10:31 | 5.70785 | -31.35556 | 37948 ft | 476 kts | 29° |
| 2026-05-07 10:31 | 5.76593 | -31.32287 | 37948 ft | 476 kts | 29° |
| 2026-05-07 10:32 | 5.82404 | -31.29016 | 37949 ft | 476 kts | 29° |
| 2026-05-07 10:32 | 5.88166 | -31.25772 | 37948 ft | 476 kts | 29° |
| 2026-05-07 10:33 | 5.93989 | -31.22493 | 37948 ft | 477 kts | 29° |
| 2026-05-07 10:33 | 5.99751 | -31.19247 | 37949 ft | 477 kts | 29° |
| 2026-05-07 10:34 | 6.05559 | -31.15974 | 37949 ft | 477 kts | 29° |
| 2026-05-07 10:34 | 6.11368 | -31.12701 | 37948 ft | 477 kts | 29° |
| 2026-05-07 10:35 | 6.17186 | -31.09421 | 37949 ft | 477 kts | 29° |
| 2026-05-07 10:35 | 6.22946 | -31.06173 | 37949 ft | 476 kts | 29° |
| 2026-05-07 10:36 | 6.28733 | -31.02908 | 37953 ft | 476 kts | 29° |
| 2026-05-07 10:36 | 6.34532 | -30.99637 | 37957 ft | 476 kts | 29° |
| 2026-05-07 10:37 | 6.40306 | -30.96379 | 37956 ft | 476 kts | 29° |
| 2026-05-07 10:37 | 6.46138 | -30.93086 | 37960 ft | 477 kts | 28° |
| 2026-05-07 10:38 | 6.51914 | -30.89825 | 37966 ft | 477 kts | 28° |
| 2026-05-07 10:38 | 6.57728 | -30.86541 | 37969 ft | 477 kts | 28° |
| 2026-05-07 10:39 | 6.63532 | -30.83262 | 37967 ft | 477 kts | 28° |
| 2026-05-07 10:39 | 6.69343 | -30.79979 | 37964 ft | 476 kts | 28° |
| 2026-05-07 10:40 | 6.75109 | -30.76720 | 37962 ft | 476 kts | 28° |
| 2026-05-07 10:40 | 6.80950 | -30.73417 | 37966 ft | 476 kts | 28° |
| 2026-05-07 10:41 | 6.86704 | -30.70163 | 37965 ft | 477 kts | 28° |
| 2026-05-07 10:41 | 6.92504 | -30.66882 | 37967 ft | 477 kts | 28° |
| 2026-05-07 10:42 | 6.98311 | -30.63596 | 37965 ft | 477 kts | 28° |
| 2026-05-07 10:42 | 7.04101 | -30.60319 | 37962 ft | 478 kts | 28° |
| 2026-05-07 10:43 | 7.09937 | -30.57015 | 37954 ft | 478 kts | 28° |
| 2026-05-07 10:43 | 7.15709 | -30.53745 | 37951 ft | 477 kts | 28° |
| 2026-05-07 10:44 | 7.21521 | -30.50453 | 37951 ft | 478 kts | 28° |
| 2026-05-07 10:44 | 7.27366 | -30.47140 | 37955 ft | 478 kts | 28° |
| 2026-05-07 10:45 | 7.33158 | -30.43857 | 37956 ft | 479 kts | 28° |
| 2026-05-07 10:45 | 7.38997 | -30.40546 | 37954 ft | 479 kts | 28° |
| 2026-05-07 10:46 | 7.44825 | -30.37240 | 37958 ft | 479 kts | 28° |
| 2026-05-07 10:46 | 7.50669 | -30.33924 | 37960 ft | 480 kts | 28° |
| 2026-05-07 10:47 | 7.56493 | -30.30618 | 37957 ft | 480 kts | 28° |
| 2026-05-07 10:47 | 7.62334 | -30.27302 | 37961 ft | 480 kts | 28° |
| 2026-05-07 10:48 | 7.68188 | -30.23977 | 37963 ft | 481 kts | 28° |
| 2026-05-07 10:48 | 7.74025 | -30.20661 | 37959 ft | 481 kts | 28° |
| 2026-05-07 10:49 | 7.79871 | -30.17338 | 37955 ft | 481 kts | 28° |
| 2026-05-07 10:49 | 7.85739 | -30.14002 | 37949 ft | 481 kts | 28° |
| 2026-05-07 10:50 | 7.91567 | -30.10687 | 37947 ft | 481 kts | 28° |
| 2026-05-07 10:50 | 7.97452 | -30.07340 | 37951 ft | 481 kts | 28° |
| 2026-05-07 10:51 | 8.03257 | -30.04036 | 37951 ft | 481 kts | 28° |
| 2026-05-07 10:51 | 8.09135 | -30.00690 | 37949 ft | 482 kts | 28° |
| 2026-05-07 10:52 | 8.14995 | -29.97353 | 37949 ft | 482 kts | 28° |
| 2026-05-07 10:52 | 8.20840 | -29.94023 | 37952 ft | 482 kts | 27° |
| 2026-05-07 10:53 | 8.26715 | -29.90676 | 37953 ft | 483 kts | 27° |
| 2026-05-07 10:53 | 8.32571 | -29.87337 | 37957 ft | 482 kts | 27° |
| 2026-05-07 10:54 | 8.38433 | -29.83994 | 37959 ft | 482 kts | 27° |
| 2026-05-07 10:54 | 8.44287 | -29.80655 | 37960 ft | 482 kts | 27° |
| 2026-05-07 10:55 | 8.50130 | -29.77321 | 37967 ft | 482 kts | 27° |
| 2026-05-07 10:55 | 8.55997 | -29.73971 | 37971 ft | 482 kts | 27° |
| 2026-05-07 10:56 | 8.61863 | -29.70621 | 37973 ft | 482 kts | 27° |
| 2026-05-07 10:56 | 8.67741 | -29.67263 | 37975 ft | 482 kts | 27° |
| 2026-05-07 10:57 | 8.73574 | -29.63929 | 37975 ft | 482 kts | 27° |
| 2026-05-07 10:57 | 8.79434 | -29.60579 | 37977 ft | 482 kts | 27° |
| 2026-05-07 10:58 | 8.85280 | -29.57235 | 37975 ft | 482 kts | 27° |
| 2026-05-07 10:58 | 8.91117 | -29.53895 | 37977 ft | 482 kts | 27° |
| 2026-05-07 10:59 | 8.96975 | -29.50543 | 37971 ft | 482 kts | 26° |
| 2026-05-07 10:59 | 9.02834 | -29.47188 | 37970 ft | 482 kts | 26° |
| 2026-05-07 11:00 | 9.08683 | -29.43837 | 37970 ft | 482 kts | 26° |
| 2026-05-07 11:00 | 9.14547 | -29.40477 | 37972 ft | 482 kts | 26° |
| 2026-05-07 11:01 | 9.20363 | -29.37143 | 37977 ft | 482 kts | 26° |
| 2026-05-07 11:01 | 9.26230 | -29.33778 | 37974 ft | 482 kts | 26° |
| 2026-05-07 11:02 | 9.32094 | -29.30414 | 37972 ft | 483 kts | 26° |
| 2026-05-07 11:02 | 9.37960 | -29.27047 | 37979 ft | 483 kts | 26° |
| 2026-05-07 11:03 | 9.43826 | -29.23679 | 37976 ft | 484 kts | 26° |
| 2026-05-07 11:03 | 9.49676 | -29.20319 | 37978 ft | 484 kts | 26° |
| 2026-05-07 11:04 | 9.55556 | -29.16940 | 37978 ft | 484 kts | 26° |
| 2026-05-07 11:04 | 9.61435 | -29.13561 | 37983 ft | 485 kts | 26° |
| 2026-05-07 11:05 | 9.67295 | -29.10191 | 37979 ft | 485 kts | 26° |
| 2026-05-07 11:05 | 9.73215 | -29.06785 | 37980 ft | 485 kts | 26° |
| 2026-05-07 11:06 | 9.79071 | -29.03414 | 37972 ft | 485 kts | 26° |
| 2026-05-07 11:06 | 9.84966 | -29.00020 | 37968 ft | 485 kts | 26° |
| 2026-05-07 11:07 | 9.90872 | -28.96617 | 37969 ft | 484 kts | 26° |
| 2026-05-07 11:07 | 9.96741 | -28.93235 | 37968 ft | 485 kts | 25° |
| 2026-05-07 11:08 | 10.02594 | -28.89860 | 37969 ft | 485 kts | 25° |
| 2026-05-07 11:08 | 10.08500 | -28.86453 | 37969 ft | 486 kts | 25° |
| 2026-05-07 11:09 | 10.14365 | -28.83068 | 37972 ft | 486 kts | 26° |
| 2026-05-07 11:09 | 10.20266 | -28.79662 | 37976 ft | 486 kts | 25° |
| 2026-05-07 11:10 | 10.26163 | -28.76256 | 37976 ft | 486 kts | 25° |
| 2026-05-07 11:10 | 10.32038 | -28.72861 | 37975 ft | 486 kts | 25° |
| 2026-05-07 11:11 | 10.37929 | -28.69455 | 37972 ft | 486 kts | 25° |
| 2026-05-07 11:11 | 10.43858 | -28.66026 | 37972 ft | 487 kts | 26° |
| 2026-05-07 11:12 | 10.49731 | -28.62628 | 37970 ft | 487 kts | 25° |
| 2026-05-07 11:12 | 10.55650 | -28.59202 | 37969 ft | 488 kts | 25° |
| 2026-05-07 11:13 | 10.61566 | -28.55776 | 37969 ft | 488 kts | 25° |
| 2026-05-07 11:13 | 10.67468 | -28.52356 | 37969 ft | 488 kts | 25° |
| 2026-05-07 11:14 | 10.73375 | -28.48932 | 37969 ft | 488 kts | 25° |
| 2026-05-07 11:14 | 10.79276 | -28.45510 | 37969 ft | 489 kts | 25° |
| 2026-05-07 11:15 | 10.85189 | -28.42079 | 37968 ft | 489 kts | 25° |
| 2026-05-07 11:15 | 10.91121 | -28.38636 | 37969 ft | 490 kts | 25° |
| 2026-05-07 11:16 | 10.97078 | -28.35177 | 37969 ft | 490 kts | 25° |
| 2026-05-07 11:16 | 11.03011 | -28.31729 | 37971 ft | 490 kts | 25° |
| 2026-05-07 11:17 | 11.08929 | -28.28289 | 37973 ft | 490 kts | 25° |
| 2026-05-07 11:17 | 11.14856 | -28.24842 | 37977 ft | 490 kts | 25° |
| 2026-05-07 11:18 | 11.20806 | -28.21381 | 37980 ft | 490 kts | 25° |
| 2026-05-07 11:18 | 11.26701 | -28.17949 | 37985 ft | 491 kts | 25° |
| 2026-05-07 11:19 | 11.32671 | -28.14473 | 37988 ft | 492 kts | 25° |
| 2026-05-07 11:19 | 11.38596 | -28.11020 | 37990 ft | 492 kts | 25° |
| 2026-05-07 11:20 | 11.44566 | -28.07540 | 37989 ft | 492 kts | 25° |
| 2026-05-07 11:20 | 11.50567 | -28.04040 | 37992 ft | 492 kts | 25° |
| 2026-05-07 11:21 | 11.56489 | -28.00585 | 37989 ft | 492 kts | 25° |
| 2026-05-07 11:21 | 11.62447 | -27.97107 | 37990 ft | 492 kts | 25° |
| 2026-05-07 11:22 | 11.68408 | -27.93625 | 37989 ft | 493 kts | 25° |
| 2026-05-07 11:22 | 11.74360 | -27.90147 | 37989 ft | 493 kts | 25° |